sensor_id;sensor_type;location;lat;lon;timestamp;pressure;altitude;pressure_sealevel;temperature;humidity
76660;BME280;65579;45.534;6.212;2023-12-04T00:01:07;98503.52;;;-5.22;64.16
76660;BME280;65579;45.534;6.212;2023-12-04T00:03:33;98505.02;;;-6.79;73.63
76660;BME280;65579;45.534;6.212;2023-12-04T00:05:58;98501.78;;;-5.04;71.72
76660;BME280;65579;45.534;6.212;2023-12-04T00:08:24;98489.96;;;-3.26;61.70
76660;BME280;65579;45.534;6.212;2023-12-04T00:10:49;98494.83;;;-3.66;60.93
76660;BME280;65579;45.534;6.212;2023-12-04T00:13:14;98507.71;;;-5.61;68.14
76660;BME280;65579;45.534;6.212;2023-12-04T00:15:40;98504.92;;;-4.54;65.32
76660;BME280;65579;45.534;6.212;2023-12-04T00:18:06;98499.27;;;-4.70;63.47
76660;BME280;65579;45.534;6.212;2023-12-04T00:20:31;98491.21;;;-3.05;58.54
76660;BME280;65579;45.534;6.212;2023-12-04T00:22:56;98498.70;;;-4.72;62.73
76660;BME280;65579;45.534;6.212;2023-12-04T00:25:22;98501.71;;;-5.65;67.61
76660;BME280;65579;45.534;6.212;2023-12-04T00:27:48;98502.43;;;-4.01;63.44
76660;BME280;65579;45.534;6.212;2023-12-04T00:30:14;98507.53;;;-5.94;68.74
76660;BME280;65579;45.534;6.212;2023-12-04T00:32:39;98500.11;;;-6.58;74.16
76660;BME280;65579;45.534;6.212;2023-12-04T00:35:06;98496.45;;;-5.21;69.48
76660;BME280;65579;45.534;6.212;2023-12-04T00:37:31;98495.51;;;-7.97;79.27
76660;BME280;65579;45.534;6.212;2023-12-04T00:39:56;98489.97;;;-5.80;72.78
76660;BME280;65579;45.534;6.212;2023-12-04T00:42:21;98485.57;;;-5.64;73.11
76660;BME280;65579;45.534;6.212;2023-12-04T00:44:47;98486.21;;;-6.63;75.31
76660;BME280;65579;45.534;6.212;2023-12-04T00:47:12;98478.14;;;-5.03;73.82
76660;BME280;65579;45.534;6.212;2023-12-04T00:49:38;98469.93;;;-4.80;67.94
76660;BME280;65579;45.534;6.212;2023-12-04T00:52:04;98474.81;;;-6.59;76.64
76660;BME280;65579;45.534;6.212;2023-12-04T00:54:28;98471.25;;;-3.87;65.93
76660;BME280;65579;45.534;6.212;2023-12-04T00:56:54;98476.47;;;-5.71;68.09
76660;BME280;65579;45.534;6.212;2023-12-04T00:59:20;98474.66;;;-6.78;74.87
76660;BME280;65579;45.534;6.212;2023-12-04T01:01:44;98474.83;;;-6.63;78.24
76660;BME280;65579;45.534;6.212;2023-12-04T01:04:09;98463.41;;;-4.78;72.24
76660;BME280;65579;45.534;6.212;2023-12-04T01:06:35;98450.28;;;-2.94;63.25
76660;BME280;65579;45.534;6.212;2023-12-04T01:09:01;98449.42;;;-2.13;58.53
76660;BME280;65579;45.534;6.212;2023-12-04T01:11:26;98443.47;;;-2.02;57.68
76660;BME280;65579;45.534;6.212;2023-12-04T01:13:52;98442.55;;;-4.36;65.68
76660;BME280;65579;45.534;6.212;2023-12-04T01:16:17;98430.70;;;-3.33;61.41
76660;BME280;65579;45.534;6.212;2023-12-04T01:18:42;98428.55;;;-2.79;60.81
76660;BME280;65579;45.534;6.212;2023-12-04T01:21:08;98427.96;;;-2.07;57.02
76660;BME280;65579;45.534;6.212;2023-12-04T01:23:33;98426.27;;;-1.40;55.00
76660;BME280;65579;45.534;6.212;2023-12-04T01:25:58;98435.56;;;-1.23;54.27
76660;BME280;65579;45.534;6.212;2023-12-04T01:28:23;98437.28;;;-1.88;54.37
76660;BME280;65579;45.534;6.212;2023-12-04T01:30:49;98440.54;;;-4.79;66.73
76660;BME280;65579;45.534;6.212;2023-12-04T01:33:14;98444.83;;;-4.90;65.20
76660;BME280;65579;45.534;6.212;2023-12-04T01:35:40;98460.76;;;-7.21;74.19
76660;BME280;65579;45.534;6.212;2023-12-04T01:38:06;98454.82;;;-3.61;65.75
76660;BME280;65579;45.534;6.212;2023-12-04T01:40:31;98453.69;;;-3.81;65.30
76660;BME280;65579;45.534;6.212;2023-12-04T01:42:56;98450.80;;;-3.14;64.07
76660;BME280;65579;45.534;6.212;2023-12-04T01:45:22;98450.08;;;-3.71;62.91
76660;BME280;65579;45.534;6.212;2023-12-04T01:47:47;98453.36;;;-6.94;77.91
76660;BME280;65579;45.534;6.212;2023-12-04T01:50:14;98446.78;;;-5.26;74.56
76660;BME280;65579;45.534;6.212;2023-12-04T01:52:39;98445.93;;;-3.62;67.88
76660;BME280;65579;45.534;6.212;2023-12-04T01:55:04;98443.94;;;-2.71;62.75
76660;BME280;65579;45.534;6.212;2023-12-04T01:57:29;98437.53;;;-2.61;61.88
76660;BME280;65579;45.534;6.212;2023-12-04T01:59:54;98434.02;;;-2.05;60.68
76660;BME280;65579;45.534;6.212;2023-12-04T02:02:20;98438.16;;;-2.00;58.97
76660;BME280;65579;45.534;6.212;2023-12-04T02:04:45;98434.50;;;-1.94;58.72
76660;BME280;65579;45.534;6.212;2023-12-04T02:07:10;98433.37;;;-1.77;58.06
76660;BME280;65579;45.534;6.212;2023-12-04T02:09:35;98429.48;;;-3.57;63.15
76660;BME280;65579;45.534;6.212;2023-12-04T02:12:00;98430.01;;;-5.19;68.53
76660;BME280;65579;45.534;6.212;2023-12-04T02:14:26;98431.74;;;-5.92;71.33
76660;BME280;65579;45.534;6.212;2023-12-04T02:16:52;98424.66;;;-2.71;64.81
76660;BME280;65579;45.534;6.212;2023-12-04T02:19:17;98423.68;;;-2.05;61.15
76660;BME280;65579;45.534;6.212;2023-12-04T02:21:42;98425.10;;;-1.15;58.23
76660;BME280;65579;45.534;6.212;2023-12-04T02:24:07;98418.97;;;-1.13;56.19
76660;BME280;65579;45.534;6.212;2023-12-04T02:26:38;98413.27;;;-0.89;55.29
76660;BME280;65579;45.534;6.212;2023-12-04T02:29:01;98416.59;;;-3.43;60.22
76660;BME280;65579;45.534;6.212;2023-12-04T02:31:24;98419.15;;;-3.16;63.79
76660;BME280;65579;45.534;6.212;2023-12-04T02:33:52;98416.33;;;-1.17;56.55
76660;BME280;65579;45.534;6.212;2023-12-04T02:36:15;98414.87;;;-2.96;59.28
76660;BME280;65579;45.534;6.212;2023-12-04T02:38:40;98413.50;;;-2.85;61.30
76660;BME280;65579;45.534;6.212;2023-12-04T02:41:06;98400.47;;;-1.10;56.43
76660;BME280;65579;45.534;6.212;2023-12-04T02:43:32;98398.36;;;-3.35;60.68
76660;BME280;65579;45.534;6.212;2023-12-04T02:45:57;98394.19;;;-1.78;57.85
76660;BME280;65579;45.534;6.212;2023-12-04T02:48:22;98381.05;;;-1.48;57.23
76660;BME280;65579;45.534;6.212;2023-12-04T02:50:47;98375.84;;;-0.54;54.81
76660;BME280;65579;45.534;6.212;2023-12-04T02:53:13;98375.29;;;-2.82;62.82
76660;BME280;65579;45.534;6.212;2023-12-04T02:55:38;98368.76;;;-4.79;65.02
76660;BME280;65579;45.534;6.212;2023-12-04T02:58:04;98360.50;;;-3.06;63.20
76660;BME280;65579;45.534;6.212;2023-12-04T03:00:30;98355.28;;;-3.22;62.30
76660;BME280;65579;45.534;6.212;2023-12-04T03:02:55;98355.71;;;-5.13;72.48
76660;BME280;65579;45.534;6.212;2023-12-04T03:05:21;98344.14;;;-3.34;65.28
76660;BME280;65579;45.534;6.212;2023-12-04T03:07:46;98333.16;;;-3.52;64.61
76660;BME280;65579;45.534;6.212;2023-12-04T03:10:12;98331.20;;;-3.11;62.95
76660;BME280;65579;45.534;6.212;2023-12-04T03:12:37;98326.78;;;-5.55;73.78
76660;BME280;65579;45.534;6.212;2023-12-04T03:15:03;98314.58;;;-2.23;62.74
76660;BME280;65579;45.534;6.212;2023-12-04T03:17:28;98301.05;;;-1.69;58.68
76660;BME280;65579;45.534;6.212;2023-12-04T03:19:54;98290.90;;;-0.97;56.56
76660;BME280;65579;45.534;6.212;2023-12-04T03:22:20;98295.62;;;-2.79;60.05
76660;BME280;65579;45.534;6.212;2023-12-04T03:24:45;98296.88;;;-2.44;60.64
76660;BME280;65579;45.534;6.212;2023-12-04T03:27:10;98291.53;;;-0.93;56.75
76660;BME280;65579;45.534;6.212;2023-12-04T03:29:35;98293.61;;;-0.56;55.09
76660;BME280;65579;45.534;6.212;2023-12-04T03:32:01;98303.76;;;-3.35;60.98
76660;BME280;65579;45.534;6.212;2023-12-04T03:34:26;98305.16;;;-3.68;66.03
76660;BME280;65579;45.534;6.212;2023-12-04T03:36:51;98305.20;;;-5.60;72.37
76660;BME280;65579;45.534;6.212;2023-12-04T03:39:16;98308.02;;;-6.61;78.89
76660;BME280;65579;45.534;6.212;2023-12-04T03:41:42;98308.10;;;-6.46;80.83
76660;BME280;65579;45.534;6.212;2023-12-04T03:44:07;98301.06;;;-5.26;77.73
76660;BME280;65579;45.534;6.212;2023-12-04T03:46:33;98292.79;;;-3.11;69.18
76660;BME280;65579;45.534;6.212;2023-12-04T03:48:59;98296.19;;;-4.88;71.80
76660;BME280;65579;45.534;6.212;2023-12-04T03:51:24;98285.13;;;-3.03;67.07
76660;BME280;65579;45.534;6.212;2023-12-04T03:53:49;98270.98;;;-1.82;62.77
76660;BME280;65579;45.534;6.212;2023-12-04T03:56:14;98287.36;;;-4.71;67.78
76660;BME280;65579;45.534;6.212;2023-12-04T03:58:39;98283.38;;;-3.57;65.74
76660;BME280;65579;45.534;6.212;2023-12-04T04:01:05;98285.08;;;-4.54;68.84
76660;BME280;65579;45.534;6.212;2023-12-04T04:03:30;98288.37;;;-3.09;66.27
76660;BME280;65579;45.534;6.212;2023-12-04T04:05:55;98278.69;;;-4.20;68.40
76660;BME280;65579;45.534;6.212;2023-12-04T04:08:21;98280.88;;;-5.34;75.01
76660;BME280;65579;45.534;6.212;2023-12-04T04:10:47;98283.18;;;-5.38;75.45
76660;BME280;65579;45.534;6.212;2023-12-04T04:13:12;98272.70;;;-3.76;71.70
76660;BME280;65579;45.534;6.212;2023-12-04T04:15:38;98268.30;;;-2.85;65.29
76660;BME280;65579;45.534;6.212;2023-12-04T04:18:03;98274.00;;;-3.50;69.81
76660;BME280;65579;45.534;6.212;2023-12-04T04:20:29;98272.77;;;-2.16;61.89
76660;BME280;65579;45.534;6.212;2023-12-04T04:22:54;98277.64;;;-1.50;60.28
76660;BME280;65579;45.534;6.212;2023-12-04T04:25:20;98293.29;;;-1.45;60.81
76660;BME280;65579;45.534;6.212;2023-12-04T04:27:44;98302.87;;;-4.38;68.24
76660;BME280;65579;45.534;6.212;2023-12-04T04:30:11;98302.34;;;-5.77;77.81
76660;BME280;65579;45.534;6.212;2023-12-04T04:32:35;98289.58;;;-5.31;78.73
76660;BME280;65579;45.534;6.212;2023-12-04T04:35:00;98277.79;;;-3.51;72.35
76660;BME280;65579;45.534;6.212;2023-12-04T04:37:25;98272.15;;;-2.13;65.07
76660;BME280;65579;45.534;6.212;2023-12-04T04:39:51;98263.98;;;-1.07;59.63
76660;BME280;65579;45.534;6.212;2023-12-04T04:42:16;98264.02;;;-4.57;73.16
76660;BME280;65579;45.534;6.212;2023-12-04T04:44:42;98244.41;;;-2.44;66.51
76660;BME280;65579;45.534;6.212;2023-12-04T04:47:07;98236.28;;;-1.73;63.21
76660;BME280;65579;45.534;6.212;2023-12-04T04:49:33;98235.11;;;-4.31;67.76
76660;BME280;65579;45.534;6.212;2023-12-04T04:51:58;98222.59;;;-6.07;80.55
76660;BME280;65579;45.534;6.212;2023-12-04T04:54:24;98218.59;;;-4.27;77.99
76660;BME280;65579;45.534;6.212;2023-12-04T04:56:49;98235.46;;;-2.93;69.73
76660;BME280;65579;45.534;6.212;2023-12-04T04:59:15;98237.68;;;-2.59;66.95
76660;BME280;65579;45.534;6.212;2023-12-04T05:01:40;98229.20;;;-1.84;64.42
76660;BME280;65579;45.534;6.212;2023-12-04T05:04:06;98230.20;;;-0.98;59.99
76660;BME280;65579;45.534;6.212;2023-12-04T05:06:31;98236.12;;;-3.18;67.46
76660;BME280;65579;45.534;6.212;2023-12-04T05:08:56;98217.49;;;-1.34;60.54
76660;BME280;65579;45.534;6.212;2023-12-04T05:11:21;98208.05;;;-2.09;60.94
76660;BME280;65579;45.534;6.212;2023-12-04T05:13:47;98207.52;;;-5.03;70.75
76660;BME280;65579;45.534;6.212;2023-12-04T05:16:12;98203.95;;;-1.19;62.18
76660;BME280;65579;45.534;6.212;2023-12-04T05:18:38;98198.56;;;-0.42;58.07
76660;BME280;65579;45.534;6.212;2023-12-04T05:21:04;98198.01;;;-0.15;57.26
76660;BME280;65579;45.534;6.212;2023-12-04T05:23:29;98191.25;;;-0.12;56.26
76660;BME280;65579;45.534;6.212;2023-12-04T05:25:54;98195.33;;;-3.22;64.37
76660;BME280;65579;45.534;6.212;2023-12-04T05:28:20;98193.82;;;-3.86;69.24
76660;BME280;65579;45.534;6.212;2023-12-04T05:30:45;98183.33;;;-2.33;63.38
76660;BME280;65579;45.534;6.212;2023-12-04T05:33:10;98172.28;;;-4.54;71.36
76660;BME280;65579;45.534;6.212;2023-12-04T05:35:35;98151.05;;;-1.82;64.55
76660;BME280;65579;45.534;6.212;2023-12-04T05:38:00;98139.95;;;-2.30;64.51
76660;BME280;65579;45.534;6.212;2023-12-04T05:40:25;98133.01;;;-1.24;60.59
76660;BME280;65579;45.534;6.212;2023-12-04T05:42:51;98146.31;;;-5.03;72.86
76660;BME280;65579;45.534;6.212;2023-12-04T05:45:16;98153.28;;;-6.17;83.17
76660;BME280;65579;45.534;6.212;2023-12-04T05:47:41;98148.51;;;-6.22;85.30
76660;BME280;65579;45.534;6.212;2023-12-04T05:50:08;98146.75;;;-5.49;81.46
76660;BME280;65579;45.534;6.212;2023-12-04T05:52:33;98153.41;;;-5.40;78.15
76660;BME280;65579;45.534;6.212;2023-12-04T05:54:58;98159.65;;;-4.16;75.00
76660;BME280;65579;45.534;6.212;2023-12-04T05:57:24;98159.46;;;-1.61;64.05
76660;BME280;65579;45.534;6.212;2023-12-04T05:59:49;98166.38;;;-1.08;60.28
76660;BME280;65579;45.534;6.212;2023-12-04T06:02:15;98169.22;;;-2.16;65.25
76660;BME280;65579;45.534;6.212;2023-12-04T06:04:41;98169.66;;;-1.38;61.53
76660;BME280;65579;45.534;6.212;2023-12-04T06:07:06;98164.24;;;-0.32;58.18
76660;BME280;65579;45.534;6.212;2023-12-04T06:09:31;98169.08;;;-3.83;67.82
76660;BME280;65579;45.534;6.212;2023-12-04T06:11:57;98143.06;;;-2.87;68.90
76660;BME280;65579;45.534;6.212;2023-12-04T06:14:23;98126.26;;;-2.29;67.30
76660;BME280;65579;45.534;6.212;2023-12-04T06:16:48;98110.98;;;-1.65;64.93
76660;BME280;65579;45.534;6.212;2023-12-04T06:19:14;98121.55;;;-1.05;60.42
76660;BME280;65579;45.534;6.212;2023-12-04T06:21:39;98150.54;;;-1.77;63.51
76660;BME280;65579;45.534;6.212;2023-12-04T06:24:06;98173.16;;;-5.01;75.88
76660;BME280;65579;45.534;6.212;2023-12-04T06:26:32;98176.37;;;-5.34;79.32
76660;BME280;65579;45.534;6.212;2023-12-04T06:28:57;98176.74;;;-5.66;84.09
76660;BME280;65579;45.534;6.212;2023-12-04T06:31:22;98174.55;;;-3.05;71.95
76660;BME280;65579;45.534;6.212;2023-12-04T06:33:48;98176.23;;;-2.02;65.96
76660;BME280;65579;45.534;6.212;2023-12-04T06:36:13;98152.03;;;-2.66;68.07
76660;BME280;65579;45.534;6.212;2023-12-04T06:38:40;98150.96;;;-2.41;68.51
76660;BME280;65579;45.534;6.212;2023-12-04T06:41:05;98160.83;;;-2.81;66.25
76660;BME280;65579;45.534;6.212;2023-12-04T06:43:30;98160.48;;;-3.34;67.64
76660;BME280;65579;45.534;6.212;2023-12-04T06:45:55;98146.90;;;-0.58;60.80
76660;BME280;65579;45.534;6.212;2023-12-04T06:48:21;98148.61;;;-2.20;64.50
76660;BME280;65579;45.534;6.212;2023-12-04T06:50:45;98142.11;;;-0.47;59.56
76660;BME280;65579;45.534;6.212;2023-12-04T06:53:11;98140.94;;;-0.23;58.65
76660;BME280;65579;45.534;6.212;2023-12-04T06:55:36;98127.72;;;-0.32;57.86
76660;BME280;65579;45.534;6.212;2023-12-04T06:58:02;98115.96;;;-1.46;59.62
76660;BME280;65579;45.534;6.212;2023-12-04T07:00:27;98113.31;;;-1.97;64.84
76660;BME280;65579;45.534;6.212;2023-12-04T07:02:52;98107.93;;;-0.72;59.43
76660;BME280;65579;45.534;6.212;2023-12-04T07:05:19;98111.22;;;-0.24;57.90
76660;BME280;65579;45.534;6.212;2023-12-04T07:07:43;98111.12;;;-0.89;60.12
76660;BME280;65579;45.534;6.212;2023-12-04T07:10:09;98099.32;;;-0.17;57.88
76660;BME280;65579;45.534;6.212;2023-12-04T07:12:34;98091.24;;;-0.60;59.28
76660;BME280;65579;45.534;6.212;2023-12-04T07:14:59;98090.46;;;-1.46;63.57
76660;BME280;65579;45.534;6.212;2023-12-04T07:17:24;98075.52;;;-2.74;65.16
76660;BME280;65579;45.534;6.212;2023-12-04T07:19:49;98080.39;;;-1.89;64.49
76660;BME280;65579;45.534;6.212;2023-12-04T07:22:15;98074.76;;;-0.02;58.83
76660;BME280;65579;45.534;6.212;2023-12-04T07:24:40;98070.64;;;-0.97;57.78
76660;BME280;65579;45.534;6.212;2023-12-04T07:27:06;98060.00;;;-0.28;57.53
76660;BME280;65579;45.534;6.212;2023-12-04T07:29:32;98051.56;;;0.61;55.10
76660;BME280;65579;45.534;6.212;2023-12-04T07:31:57;98039.90;;;1.33;53.59
76660;BME280;65579;45.534;6.212;2023-12-04T07:34:22;98044.40;;;0.82;53.48
76660;BME280;65579;45.534;6.212;2023-12-04T07:36:47;98054.18;;;-2.72;64.64
76660;BME280;65579;45.534;6.212;2023-12-04T07:39:13;98066.61;;;-3.39;71.98
76660;BME280;65579;45.534;6.212;2023-12-04T07:41:38;98070.03;;;-2.37;67.20
76660;BME280;65579;45.534;6.212;2023-12-04T07:44:04;98074.71;;;-3.12;68.70
76660;BME280;65579;45.534;6.212;2023-12-04T07:46:29;98070.42;;;-1.02;61.66
76660;BME280;65579;45.534;6.212;2023-12-04T07:48:55;98093.48;;;-4.79;77.96
76660;BME280;65579;45.534;6.212;2023-12-04T07:51:20;98094.15;;;-3.66;77.55
76660;BME280;65579;45.534;6.212;2023-12-04T07:53:46;98101.00;;;-4.36;79.15
76660;BME280;65579;45.534;6.212;2023-12-04T07:56:12;98097.12;;;-3.58;75.46
76660;BME280;65579;45.534;6.212;2023-12-04T07:58:37;98096.34;;;-3.41;75.68
76660;BME280;65579;45.534;6.212;2023-12-04T08:01:03;98086.52;;;-3.04;71.12
76660;BME280;65579;45.534;6.212;2023-12-04T08:03:28;98082.31;;;-1.02;64.10
76660;BME280;65579;45.534;6.212;2023-12-04T08:05:54;98090.59;;;-0.12;61.05
76660;BME280;65579;45.534;6.212;2023-12-04T08:08:20;98099.13;;;-1.70;63.34
76660;BME280;65579;45.534;6.212;2023-12-04T08:10:45;98100.85;;;-3.75;71.26
76660;BME280;65579;45.534;6.212;2023-12-04T08:13:10;98101.63;;;-3.90;74.80
76660;BME280;65579;45.534;6.212;2023-12-04T08:15:35;98105.26;;;-4.21;78.28
76660;BME280;65579;45.534;6.212;2023-12-04T08:18:01;98102.05;;;-4.49;80.26
76660;BME280;65579;45.534;6.212;2023-12-04T08:20:26;98090.84;;;-2.11;69.89
76660;BME280;65579;45.534;6.212;2023-12-04T08:22:52;98096.73;;;-0.20;61.17
76660;BME280;65579;45.534;6.212;2023-12-04T08:25:17;98103.20;;;-0.45;59.52
76660;BME280;65579;45.534;6.212;2023-12-04T08:27:43;98099.94;;;1.25;56.41
76660;BME280;65579;45.534;6.212;2023-12-04T08:30:09;98111.19;;;-1.81;64.19
76660;BME280;65579;45.534;6.212;2023-12-04T08:32:34;98115.26;;;-4.00;73.20
76660;BME280;65579;45.534;6.212;2023-12-04T08:34:59;98102.39;;;-1.91;68.18
76660;BME280;65579;45.534;6.212;2023-12-04T08:37:25;98097.94;;;-0.04;60.01
76660;BME280;65579;45.534;6.212;2023-12-04T08:39:50;98103.19;;;0.46;56.10
76660;BME280;65579;45.534;6.212;2023-12-04T08:42:16;98093.46;;;1.14;56.97
76660;BME280;65579;45.534;6.212;2023-12-04T08:44:41;98083.85;;;1.40;54.08
76660;BME280;65579;45.534;6.212;2023-12-04T08:47:06;98102.07;;;-2.94;66.47
76660;BME280;65579;45.534;6.212;2023-12-04T08:49:32;98104.97;;;-1.38;66.50
76660;BME280;65579;45.534;6.212;2023-12-04T08:51:57;98106.50;;;-0.93;65.23
76660;BME280;65579;45.534;6.212;2023-12-04T08:54:24;98111.83;;;0.84;59.12
76660;BME280;65579;45.534;6.212;2023-12-04T08:56:48;98114.33;;;0.88;56.49
76660;BME280;65579;45.534;6.212;2023-12-04T08:59:13;98112.12;;;-0.68;61.19
76660;BME280;65579;45.534;6.212;2023-12-04T09:01:39;98114.61;;;-0.27;59.92
76660;BME280;65579;45.534;6.212;2023-12-04T09:04:04;98107.40;;;1.84;54.52
76660;BME280;65579;45.534;6.212;2023-12-04T09:06:29;98121.33;;;0.69;54.58
76660;BME280;65579;45.534;6.212;2023-12-04T09:08:55;98128.61;;;-2.43;67.52
76660;BME280;65579;45.534;6.212;2023-12-04T09:11:20;98120.14;;;-0.01;61.60
76660;BME280;65579;45.534;6.212;2023-12-04T09:13:45;98116.61;;;-1.17;63.94
76660;BME280;65579;45.534;6.212;2023-12-04T09:16:11;98116.22;;;-1.23;64.11
76660;BME280;65579;45.534;6.212;2023-12-04T09:18:37;98112.39;;;0.54;59.88
76660;BME280;65579;45.534;6.212;2023-12-04T09:21:02;98107.34;;;0.43;58.25
76660;BME280;65579;45.534;6.212;2023-12-04T09:23:27;98100.57;;;1.92;54.10
76660;BME280;65579;45.534;6.212;2023-12-04T09:25:53;98115.60;;;-0.16;57.02
76660;BME280;65579;45.534;6.212;2023-12-04T09:28:18;98126.30;;;-2.08;66.31
76660;BME280;65579;45.534;6.212;2023-12-04T09:30:43;98117.34;;;-0.75;63.84
76660;BME280;65579;45.534;6.212;2023-12-04T09:33:08;98118.31;;;-0.49;63.39
76660;BME280;65579;45.534;6.212;2023-12-04T09:35:33;98109.61;;;-0.33;60.74
76660;BME280;65579;45.534;6.212;2023-12-04T09:37:59;98089.94;;;1.57;55.85
76660;BME280;65579;45.534;6.212;2023-12-04T09:40:24;98087.27;;;1.93;53.12
76660;BME280;65579;45.534;6.212;2023-12-04T09:42:49;98091.59;;;2.70;51.53
76660;BME280;65579;45.534;6.212;2023-12-04T09:45:15;98090.49;;;1.76;51.61
76660;BME280;65579;45.534;6.212;2023-12-04T09:47:39;98086.05;;;1.45;53.96
76660;BME280;65579;45.534;6.212;2023-12-04T09:50:06;98072.73;;;1.37;54.88
76660;BME280;65579;45.534;6.212;2023-12-04T09:52:31;98061.15;;;2.23;52.89
76660;BME280;65579;45.534;6.212;2023-12-04T09:54:55;98059.96;;;2.99;50.63
76660;BME280;65579;45.534;6.212;2023-12-04T09:57:22;98065.27;;;2.81;51.24
76660;BME280;65579;45.534;6.212;2023-12-04T09:59:47;98063.71;;;2.88;51.33
76660;BME280;65579;45.534;6.212;2023-12-04T10:02:12;98066.07;;;0.49;55.46
76660;BME280;65579;45.534;6.212;2023-12-04T10:04:37;98079.60;;;-0.10;57.65
76660;BME280;65579;45.534;6.212;2023-12-04T10:07:02;98083.02;;;-0.40;62.24
76660;BME280;65579;45.534;6.212;2023-12-04T10:09:27;98081.16;;;0.37;57.94
76660;BME280;65579;45.534;6.212;2023-12-04T10:11:53;98072.16;;;-2.33;68.19
76660;BME280;65579;45.534;6.212;2023-12-04T10:14:19;98072.44;;;-2.18;69.69
76660;BME280;65579;45.534;6.212;2023-12-04T10:16:43;98074.17;;;-2.08;71.93
76660;BME280;65579;45.534;6.212;2023-12-04T10:19:16;98074.51;;;-3.29;74.05
76660;BME280;65579;45.534;6.212;2023-12-04T10:21:34;98068.92;;;-1.00;68.61
76660;BME280;65579;45.534;6.212;2023-12-04T10:24:00;98061.38;;;-1.53;68.21
76660;BME280;65579;45.534;6.212;2023-12-04T10:26:25;98063.62;;;-3.72;79.37
76660;BME280;65579;45.534;6.212;2023-12-04T10:28:58;98069.79;;;-3.76;80.94
76660;BME280;65579;45.534;6.212;2023-12-04T10:31:17;98059.63;;;-2.33;76.24
76660;BME280;65579;45.534;6.212;2023-12-04T10:33:41;98062.68;;;-2.43;72.21
76660;BME280;65579;45.534;6.212;2023-12-04T10:36:11;98059.80;;;-1.77;71.62
76660;BME280;65579;45.534;6.212;2023-12-04T10:38:32;98052.43;;;0.69;62.12
76660;BME280;65579;45.534;6.212;2023-12-04T10:43:23;98036.87;;;-1.80;67.76
76660;BME280;65579;45.534;6.212;2023-12-04T10:45:49;98036.10;;;-0.49;63.73
76660;BME280;65579;45.534;6.212;2023-12-04T10:48:15;98033.86;;;0.30;61.86
76660;BME280;65579;45.534;6.212;2023-12-04T10:50:40;98025.64;;;-0.46;64.20
76660;BME280;65579;45.534;6.212;2023-12-04T10:53:05;98023.11;;;-0.67;64.50
76660;BME280;65579;45.534;6.212;2023-12-04T10:55:30;98017.32;;;0.10;62.84
76660;BME280;65579;45.534;6.212;2023-12-04T10:57:55;98013.04;;;-0.32;63.91
76660;BME280;65579;45.534;6.212;2023-12-04T11:00:20;98010.15;;;-1.91;68.55
76660;BME280;65579;45.534;6.212;2023-12-04T11:02:47;98007.61;;;0.90;61.46
76660;BME280;65579;45.534;6.212;2023-12-04T11:05:14;97992.86;;;1.88;56.36
76660;BME280;65579;45.534;6.212;2023-12-04T11:07:36;97985.89;;;1.90;56.71
76660;BME280;65579;45.534;6.212;2023-12-04T11:10:03;97978.71;;;2.23;53.87
76660;BME280;65579;45.534;6.212;2023-12-04T11:12:29;97983.06;;;-0.72;62.73
76660;BME280;65579;45.534;6.212;2023-12-04T11:14:56;97974.75;;;1.15;58.35
76660;BME280;65579;45.534;6.212;2023-12-04T11:17:19;97963.57;;;2.29;55.74
76660;BME280;65579;45.534;6.212;2023-12-04T11:19:50;97975.52;;;-1.14;63.20
76660;BME280;65579;45.534;6.212;2023-12-04T11:22:10;97979.28;;;-1.97;68.90
76660;BME280;65579;45.534;6.212;2023-12-04T11:24:36;97977.40;;;-1.13;67.43
76660;BME280;65579;45.534;6.212;2023-12-04T11:27:01;97981.62;;;-2.64;73.62
76660;BME280;65579;45.534;6.212;2023-12-04T11:29:26;97987.65;;;-0.58;67.44
76660;BME280;65579;45.534;6.212;2023-12-04T11:31:51;97981.51;;;-1.02;65.87
76660;BME280;65579;45.534;6.212;2023-12-04T11:34:17;97973.56;;;-1.72;72.32
76660;BME280;65579;45.534;6.212;2023-12-04T11:36:44;97964.17;;;1.80;61.68
76660;BME280;65579;45.534;6.212;2023-12-04T11:39:09;97953.40;;;1.91;59.36
76660;BME280;65579;45.534;6.212;2023-12-04T11:41:35;97952.54;;;1.53;59.24
76660;BME280;65579;45.534;6.212;2023-12-04T11:43:59;97949.87;;;2.51;57.24
76660;BME280;65579;45.534;6.212;2023-12-04T11:46:25;97953.44;;;2.10;57.20
76660;BME280;65579;45.534;6.212;2023-12-04T11:48:50;97958.04;;;-1.30;67.57
76660;BME280;65579;45.534;6.212;2023-12-04T11:53:40;97955.72;;;0.08;65.73
76660;BME280;65579;45.534;6.212;2023-12-04T11:56:10;97956.12;;;0.24;64.74
76660;BME280;65579;45.534;6.212;2023-12-04T11:58:30;97960.61;;;-0.62;64.98
76660;BME280;65579;45.534;6.212;2023-12-04T12:00:55;97952.52;;;0.42;60.75
76660;BME280;65579;45.534;6.212;2023-12-04T12:03:21;97954.64;;;-0.70;67.97
76660;BME280;65579;45.534;6.212;2023-12-04T12:05:49;97950.63;;;1.33;61.16
76660;BME280;65579;45.534;6.212;2023-12-04T12:08:12;97945.13;;;0.87;60.92
76660;BME280;65579;45.534;6.212;2023-12-04T12:10:37;97945.97;;;-0.53;66.56
76660;BME280;65579;45.534;6.212;2023-12-04T12:13:02;97949.07;;;-1.26;69.05
76660;BME280;65579;45.534;6.212;2023-12-04T12:15:28;97938.65;;;-2.13;72.54
76660;BME280;65579;45.534;6.212;2023-12-04T12:17:53;97931.90;;;-0.87;69.40
76660;BME280;65579;45.534;6.212;2023-12-04T12:20:18;97921.51;;;1.05;63.98
76660;BME280;65579;45.534;6.212;2023-12-04T12:22:43;97917.39;;;2.12;59.72
76660;BME280;65579;45.534;6.212;2023-12-04T12:25:10;97917.07;;;2.80;55.37
76660;BME280;65579;45.534;6.212;2023-12-04T12:27:34;97923.45;;;3.45;54.12
76660;BME280;65579;45.534;6.212;2023-12-04T12:29:59;97920.06;;;3.90;52.71
76660;BME280;65579;45.534;6.212;2023-12-04T12:32:26;97918.51;;;-0.68;63.66
76660;BME280;65579;45.534;6.212;2023-12-04T12:34:50;97912.87;;;1.84;57.64
76660;BME280;65579;45.534;6.212;2023-12-04T12:37:16;97906.39;;;1.28;57.34
76660;BME280;65579;45.534;6.212;2023-12-04T12:39:42;97906.75;;;0.05;60.89
76660;BME280;65579;45.534;6.212;2023-12-04T12:42:07;97907.02;;;0.92;63.14
76660;BME280;65579;45.534;6.212;2023-12-04T12:44:39;97901.46;;;2.59;57.07
76660;BME280;65579;45.534;6.212;2023-12-04T12:46:58;97899.52;;;2.03;58.52
76660;BME280;65579;45.534;6.212;2023-12-04T12:49:24;97902.24;;;2.91;56.27
76660;BME280;65579;45.534;6.212;2023-12-04T12:51:50;97902.35;;;3.09;55.24
76660;BME280;65579;45.534;6.212;2023-12-04T12:54:15;97901.65;;;3.19;55.09
76660;BME280;65579;45.534;6.212;2023-12-04T12:56:41;97897.97;;;4.65;51.92